createdAt,value
2017-12-14T00:00:22.156Z,87.00
2017-12-14T00:02:49.697Z,86.60
2017-12-14T00:05:17.980Z,86.90
2017-12-14T00:07:45.512Z,86.90
2017-12-14T00:10:13.002Z,87.30
2017-12-14T00:12:40.579Z,87.80
2017-12-14T00:15:08.074Z,88.10
2017-12-14T00:17:35.572Z,88.10
2017-12-14T00:20:03.097Z,88.30
2017-12-14T00:22:30.609Z,88.40
2017-12-14T00:24:57.637Z,88.80
2017-12-14T00:27:25.125Z,89.00
2017-12-14T00:29:52.686Z,89.20
2017-12-14T00:32:20.190Z,89.30
2017-12-14T00:34:48.468Z,90.00
2017-12-14T00:37:16.778Z,90.00
2017-12-14T00:39:44.265Z,90.00
2017-12-14T00:42:11.793Z,90.10
2017-12-14T00:44:39.286Z,90.20
2017-12-14T00:47:07.572Z,90.70
2017-12-14T00:49:35.093Z,90.60
2017-12-14T00:52:02.580Z,90.70
2017-12-14T00:54:30.109Z,90.70
2017-12-14T00:56:57.616Z,90.80
2017-12-14T00:59:25.892Z,91.00
2017-12-14T01:01:54.196Z,91.00
2017-12-14T01:04:21.703Z,90.90
2017-12-14T01:06:49.236Z,91.00
2017-12-14T01:09:16.720Z,91.00
2017-12-14T01:11:44.266Z,91.10
2017-12-14T01:14:11.752Z,91.20
2017-12-14T01:16:40.008Z,91.30
2017-12-14T01:19:07.536Z,91.20
2017-12-14T01:21:35.028Z,91.30
2017-12-14T01:24:02.541Z,91.20
2017-12-14T01:26:30.041Z,91.30
2017-12-14T01:28:57.566Z,91.20
2017-12-14T01:31:25.133Z,91.20
2017-12-14T01:33:52.656Z,91.20
2017-12-14T01:36:20.166Z,91.10
2017-12-14T01:38:47.664Z,91.20
2017-12-14T01:41:15.177Z,91.30
2017-12-14T01:43:43.465Z,91.40
2017-12-14T01:46:11.088Z,91.70
2017-12-14T01:48:38.608Z,91.80
2017-12-14T01:51:06.877Z,92.00
2017-12-14T01:53:35.182Z,92.00
2017-12-14T01:56:02.680Z,92.00
2017-12-14T01:58:30.177Z,92.20
2017-12-14T02:00:57.691Z,92.20
2017-12-14T02:03:25.321Z,92.20
2017-12-14T02:05:52.810Z,91.50
2017-12-14T02:08:20.304Z,91.40
2017-12-14T02:10:48.580Z,86.60
2017-12-14T02:13:16.072Z,86.60
2017-12-14T02:15:43.813Z,85.30
2017-12-14T02:18:11.320Z,81.90
2017-12-14T02:20:38.814Z,81.00
2017-12-14T02:23:07.099Z,79.70
2017-12-14T02:25:34.587Z,79.70
2017-12-14T02:28:02.108Z,79.50
2017-12-14T02:30:29.628Z,79.20
2017-12-14T02:32:57.128Z,79.10
2017-12-14T02:35:24.641Z,79.10
2017-12-14T02:37:52.143Z,78.90
2017-12-14T02:40:19.656Z,79.00
2017-12-14T02:42:47.148Z,78.40
2017-12-14T02:45:14.809Z,78.60
2017-12-14T02:47:42.334Z,79.00
2017-12-14T02:50:09.824Z,79.20
2017-12-14T02:52:37.353Z,79.30
2017-12-14T02:55:04.852Z,79.40
2017-12-14T02:57:32.337Z,79.60
2017-12-14T02:59:59.847Z,79.80
2017-12-14T03:02:27.358Z,79.60
2017-12-14T03:04:54.863Z,79.80
2017-12-14T03:07:23.131Z,80.00
2017-12-14T03:09:51.427Z,80.30
2017-12-14T03:12:18.944Z,80.20
2017-12-14T03:14:46.472Z,80.20
2017-12-14T03:17:13.991Z,80.50
2017-12-14T03:19:42.239Z,81.20
2017-12-14T03:22:09.764Z,81.20
2017-12-14T03:24:37.284Z,82.50
2017-12-14T03:27:04.792Z,81.60
2017-12-14T03:29:32.329Z,81.50
2017-12-14T03:31:59.885Z,81.70
2017-12-14T03:34:27.377Z,81.40
2017-12-14T03:36:54.901Z,81.50
2017-12-14T03:39:22.392Z,81.40
2017-12-14T03:41:49.916Z,81.00
2017-12-14T03:44:17.409Z,80.90
2017-12-14T03:46:44.911Z,80.20
2017-12-14T03:49:12.428Z,80.10
2017-12-14T03:51:39.912Z,80.00
2017-12-14T03:54:08.194Z,79.60
2017-12-14T03:56:35.699Z,79.50
2017-12-14T03:59:03.223Z,79.60
2017-12-14T04:01:30.712Z,79.70
2017-12-14T04:03:58.211Z,79.80
2017-12-14T04:06:26.495Z,80.10
2017-12-14T04:08:54.052Z,80.00
2017-12-14T04:11:21.596Z,80.40
2017-12-14T04:13:49.856Z,85.70
2017-12-14T04:16:18.124Z,86.20
2017-12-14T04:18:45.628Z,86.20
2017-12-14T04:21:13.143Z,85.80
2017-12-14T04:23:40.648Z,85.90
2017-12-14T04:26:08.141Z,85.90
2017-12-14T04:28:35.647Z,86.20
2017-12-14T04:31:03.160Z,86.50
2017-12-14T04:33:30.667Z,83.40
2017-12-14T04:35:58.197Z,81.90
2017-12-14T04:38:26.446Z,81.10
2017-12-14T04:40:54.017Z,81.10
2017-12-14T04:43:21.508Z,79.50
2017-12-14T04:45:49.041Z,78.40
2017-12-14T04:48:16.561Z,76.00
2017-12-14T04:50:44.056Z,75.60
2017-12-14T04:53:11.561Z,74.90
2017-12-14T04:55:39.056Z,74.30
2017-12-14T04:58:06.584Z,73.40
2017-12-14T05:00:34.116Z,73.50
2017-12-14T05:03:01.644Z,73.60
2017-12-14T05:05:29.178Z,72.90
2017-12-14T05:07:56.763Z,72.40
2017-12-14T05:10:24.279Z,71.20
2017-12-14T05:12:51.831Z,72.00
2017-12-14T05:15:19.342Z,72.00
2017-12-14T05:17:47.627Z,74.50
2017-12-14T05:20:15.906Z,74.90
2017-12-14T05:22:43.432Z,74.80
2017-12-14T05:25:10.940Z,76.10
2017-12-14T05:27:38.478Z,76.60
2017-12-14T05:30:07.081Z,77.30
2017-12-14T05:32:35.097Z,77.30
2017-12-14T05:35:03.878Z,76.00
2017-12-14T05:37:31.560Z,76.00
2017-12-14T05:39:59.076Z,75.20
2017-12-14T05:42:26.578Z,74.70
2017-12-14T05:44:54.094Z,73.10
2017-12-14T05:47:21.589Z,71.90
2017-12-14T05:49:49.084Z,70.40
2017-12-14T05:52:16.614Z,68.40
2017-12-14T05:54:44.879Z,66.60
2017-12-14T05:57:12.396Z,66.60
2017-12-14T05:59:39.893Z,65.00
2017-12-14T06:02:08.177Z,64.50
2017-12-14T06:04:36.443Z,63.70
2017-12-14T06:07:04.723Z,63.20
2017-12-14T06:09:33.004Z,64.50
2017-12-14T06:12:01.260Z,64.50
2017-12-14T06:14:28.793Z,64.50
2017-12-14T06:16:56.315Z,64.50
2017-12-14T06:19:23.830Z,64.70
2017-12-14T06:21:51.343Z,64.90
2017-12-14T06:24:18.854Z,63.80
2017-12-14T06:26:46.387Z,63.90
2017-12-14T06:29:13.890Z,63.60
2017-12-14T06:31:41.403Z,63.00
2017-12-14T06:34:08.912Z,63.30
2017-12-14T06:36:36.484Z,63.00
2017-12-14T06:39:03.988Z,63.00
2017-12-14T06:41:31.505Z,61.70
2017-12-14T06:43:59.027Z,62.30
2017-12-14T06:46:27.288Z,61.90
2017-12-14T06:48:54.813Z,61.90
2017-12-14T06:51:22.324Z,62.00
2017-12-14T06:53:50.595Z,61.80
2017-12-14T06:56:18.884Z,61.50
2017-12-14T06:58:46.424Z,61.50
2017-12-14T07:01:14.717Z,61.40
2017-12-14T07:03:42.232Z,61.30
2017-12-14T07:06:09.779Z,61.00
2017-12-14T07:08:37.285Z,60.50
2017-12-14T07:11:04.803Z,60.40
2017-12-14T07:13:32.315Z,60.20
2017-12-14T07:15:59.832Z,60.40
2017-12-14T07:18:27.409Z,60.60
2017-12-14T07:20:55.700Z,60.10
2017-12-14T07:23:23.194Z,59.80
2017-12-14T07:25:50.719Z,60.00
2017-12-14T07:28:18.216Z,59.80
2017-12-14T07:30:46.130Z,60.10
2017-12-14T07:33:13.629Z,59.90
2017-12-14T07:35:41.157Z,60.00
2017-12-14T07:38:08.654Z,60.00
2017-12-14T07:40:36.140Z,59.70
2017-12-14T07:43:08.167Z,59.80
2017-12-14T07:48:34.392Z,59.60
2017-12-14T07:51:02.012Z,59.70
2017-12-14T07:53:30.296Z,59.80
2017-12-14T07:55:58.561Z,59.80
2017-12-14T07:58:26.852Z,59.90
2017-12-14T08:00:55.131Z,59.80
2017-12-14T08:03:22.629Z,59.80
2017-12-14T08:05:50.176Z,59.50
2017-12-14T08:08:17.672Z,59.70
2017-12-14T08:10:45.180Z,59.70
2017-12-14T08:13:12.732Z,59.20
2017-12-14T08:15:40.256Z,59.70
2017-12-14T08:18:07.794Z,59.90
2017-12-14T08:20:35.287Z,60.50
2017-12-14T08:23:03.566Z,59.70
2017-12-14T08:25:31.055Z,59.70
2017-12-14T08:27:58.585Z,59.60
2017-12-14T08:30:26.096Z,59.50
2017-12-14T08:32:53.584Z,59.20
2017-12-14T08:35:21.868Z,58.90
2017-12-14T08:37:49.363Z,58.80
2017-12-14T08:40:16.879Z,59.20
2017-12-14T08:42:44.385Z,59.50
2017-12-14T08:45:11.891Z,59.40
2017-12-14T08:47:40.144Z,59.40
2017-12-14T08:50:07.676Z,59.90
2017-12-14T08:52:35.176Z,59.10
2017-12-14T08:55:03.436Z,59.10
2017-12-14T08:57:30.948Z,59.00
2017-12-14T08:59:58.452Z,58.70
2017-12-14T09:02:25.980Z,58.30
2017-12-14T09:04:53.540Z,58.30
2017-12-14T09:07:21.076Z,57.70
2017-12-14T09:09:48.569Z,58.00
2017-12-14T09:12:16.071Z,57.50
2017-12-14T09:14:43.590Z,57.60
2017-12-14T09:17:11.096Z,57.30
2017-12-14T09:19:38.615Z,57.50
2017-12-14T09:22:06.106Z,57.10
2017-12-14T09:24:33.645Z,56.70
2017-12-14T09:27:01.984Z,56.60
2017-12-14T09:29:29.490Z,56.60
2017-12-14T09:31:57.008Z,57.30
2017-12-14T09:34:24.502Z,56.90
2017-12-14T09:36:52.068Z,56.30
2017-12-14T09:39:19.599Z,56.30
2017-12-14T09:41:47.888Z,55.90
2017-12-14T09:44:16.187Z,55.50
2017-12-14T09:46:43.747Z,55.50
2017-12-14T09:49:11.243Z,55.50
2017-12-14T09:51:38.732Z,54.90
2017-12-14T09:54:07.069Z,54.40
2017-12-14T09:56:34.560Z,54.40
2017-12-14T09:59:02.873Z,53.80
2017-12-14T10:01:30.430Z,53.80
2017-12-14T10:03:57.977Z,53.90
2017-12-14T10:06:25.536Z,52.70
2017-12-14T10:08:53.024Z,52.50
2017-12-14T10:11:20.544Z,52.00
2017-12-14T10:13:48.037Z,51.00
2017-12-14T10:16:15.560Z,51.30
2017-12-14T10:18:43.073Z,51.40
2017-12-14T10:21:10.566Z,50.00
2017-12-14T10:23:38.848Z,48.90
2017-12-14T10:26:06.343Z,48.90
2017-12-14T10:28:33.866Z,47.70
2017-12-14T10:31:01.375Z,47.70
2017-12-14T10:33:28.877Z,47.30
2017-12-14T10:35:56.412Z,46.20
2017-12-14T10:38:23.909Z,47.10
2017-12-14T10:40:51.459Z,46.50
2017-12-14T10:43:18.958Z,46.60
2017-12-14T10:45:46.457Z,47.40
2017-12-14T10:48:14.744Z,46.90
2017-12-14T10:50:42.253Z,46.80
2017-12-14T10:53:09.770Z,47.00
2017-12-14T10:55:37.282Z,46.10
2017-12-14T10:58:04.818Z,44.70
2017-12-14T11:00:38.080Z,46.00
2017-12-14T11:03:05.612Z,45.50
2017-12-14T11:05:33.963Z,45.80
2017-12-14T11:08:01.427Z,45.80
2017-12-14T11:10:29.722Z,45.10
2017-12-14T11:12:57.994Z,43.60
2017-12-14T11:15:26.306Z,43.90
2017-12-14T11:17:53.817Z,43.90
2017-12-14T11:20:22.095Z,44.70
2017-12-14T11:22:50.363Z,44.50
2017-12-14T11:25:18.631Z,45.70
2017-12-14T11:27:46.161Z,44.90
2017-12-14T11:30:13.660Z,45.30
2017-12-14T11:32:41.973Z,45.50
2017-12-14T11:35:09.491Z,45.40
2017-12-14T11:37:37.791Z,43.80
2017-12-14T11:40:05.312Z,43.70
2017-12-14T11:42:32.817Z,43.10
2017-12-14T11:45:00.340Z,42.50
2017-12-14T11:47:28.605Z,41.20
2017-12-14T11:49:56.153Z,41.20
2017-12-14T11:52:23.660Z,41.60
2017-12-14T11:54:51.207Z,40.90
2017-12-14T11:57:18.721Z,39.60
2017-12-14T11:59:46.213Z,41.20
2017-12-14T12:02:14.505Z,40.60
2017-12-14T12:04:42.012Z,40.60
2017-12-14T12:07:09.559Z,40.40
2017-12-14T12:09:37.061Z,40.00
2017-12-14T12:12:05.345Z,36.60
2017-12-14T12:14:33.650Z,37.10
2017-12-14T12:17:01.143Z,37.00
2017-12-14T12:19:28.676Z,37.30
2017-12-14T12:21:56.569Z,36.30
2017-12-14T12:24:24.095Z,36.10
2017-12-14T12:26:51.589Z,36.40
2017-12-14T12:29:20.629Z,37.40
2017-12-14T12:31:48.131Z,37.40
2017-12-14T12:34:15.629Z,37.80
2017-12-14T12:36:43.140Z,38.70
2017-12-14T12:39:10.639Z,39.40
2017-12-14T12:41:38.915Z,39.70
2017-12-14T12:44:06.481Z,39.70
2017-12-14T12:46:33.998Z,39.20
2017-12-14T12:49:02.305Z,35.90
2017-12-14T12:51:30.605Z,35.50
2017-12-14T12:53:58.104Z,35.50
2017-12-14T12:56:25.605Z,35.80
2017-12-14T12:58:53.142Z,35.60
2017-12-14T13:01:21.400Z,34.40
2017-12-14T13:03:48.915Z,34.40
2017-12-14T13:06:16.413Z,35.70
2017-12-14T13:08:43.936Z,35.50
2017-12-14T13:11:11.440Z,35.10
2017-12-14T13:13:38.935Z,35.50
2017-12-14T13:16:06.452Z,36.20
2017-12-14T13:18:33.941Z,36.00
2017-12-14T13:21:01.468Z,33.90
2017-12-14T13:23:28.993Z,35.00
2017-12-14T13:25:56.522Z,35.60
2017-12-14T13:28:24.069Z,35.90
2017-12-14T13:30:51.562Z,36.50
2017-12-14T13:33:19.080Z,36.40
2017-12-14T13:35:46.601Z,35.70
2017-12-14T13:38:15.636Z,35.10
2017-12-14T13:40:43.137Z,35.00
2017-12-14T13:43:10.625Z,35.90
2017-12-14T13:45:38.913Z,36.80
2017-12-14T13:48:07.186Z,37.20
2017-12-14T13:50:35.524Z,37.60
2017-12-14T13:53:03.034Z,37.50
2017-12-14T13:55:30.584Z,38.50
2017-12-14T13:57:58.093Z,38.00
2017-12-14T14:00:25.602Z,38.60
2017-12-14T14:02:53.912Z,40.10
2017-12-14T14:05:21.425Z,40.10
2017-12-14T14:07:49.728Z,41.10
2017-12-14T14:10:17.229Z,41.10
2017-12-14T14:12:44.781Z,41.60
2017-12-14T14:15:13.073Z,42.50
2017-12-14T14:17:41.356Z,43.40
2017-12-14T14:20:09.633Z,44.10
2017-12-14T14:22:37.904Z,44.70
2017-12-14T14:25:06.201Z,45.20
2017-12-14T14:27:33.704Z,45.20
2017-12-14T14:30:01.364Z,45.50
2017-12-14T14:32:28.864Z,46.90
2017-12-14T14:34:57.192Z,47.50
2017-12-14T14:37:24.708Z,47.50
2017-12-14T14:39:52.228Z,47.50
2017-12-14T14:42:19.762Z,48.00
2017-12-14T14:44:47.279Z,48.20
2017-12-14T14:47:15.588Z,48.50
2017-12-14T14:49:43.095Z,48.50
2017-12-14T14:52:11.400Z,48.90
2017-12-14T14:54:38.937Z,48.90
2017-12-14T14:57:07.196Z,49.00
2017-12-14T14:59:34.708Z,49.00
2017-12-14T15:02:02.206Z,49.40
2017-12-14T15:04:29.818Z,49.60
2017-12-14T15:06:57.346Z,50.10
2017-12-14T15:09:25.697Z,50.70
2017-12-14T15:11:53.623Z,50.60
2017-12-14T15:14:21.599Z,50.80
2017-12-14T15:16:49.526Z,51.00
2017-12-14T15:19:17.435Z,51.00
2017-12-14T15:21:46.110Z,51.60
2017-12-14T15:24:15.614Z,51.50
2017-12-14T15:26:44.298Z,51.80
2017-12-14T15:29:12.265Z,51.70
2017-12-14T15:31:40.234Z,52.00
2017-12-14T15:34:08.827Z,52.30
2017-12-14T15:36:36.401Z,52.30
2017-12-14T15:39:03.944Z,52.60
2017-12-14T15:41:31.484Z,52.50
2017-12-14T15:43:59.006Z,52.80
2017-12-14T15:46:26.516Z,52.90
2017-12-14T15:48:54.036Z,53.00
2017-12-14T15:51:22.305Z,52.70
2017-12-14T15:53:50.627Z,52.90
2017-12-14T15:56:18.152Z,52.90
2017-12-14T15:58:46.449Z,53.30
2017-12-14T16:01:13.969Z,53.30
2017-12-14T16:03:42.253Z,53.40
2017-12-14T16:06:09.818Z,53.30
2017-12-14T16:08:38.085Z,53.50
2017-12-14T16:11:06.373Z,53.60
2017-12-14T16:13:33.884Z,53.50
2017-12-14T16:16:01.438Z,53.60
2017-12-14T16:18:29.006Z,53.90
2017-12-14T16:20:56.503Z,54.40
2017-12-14T16:23:24.037Z,54.60
2017-12-14T16:25:51.553Z,55.10
2017-12-14T16:28:19.080Z,55.30
2017-12-14T16:30:46.574Z,55.60
2017-12-14T16:33:14.115Z,56.10
2017-12-14T16:35:41.640Z,56.00
2017-12-14T16:38:10.065Z,56.40
2017-12-14T16:40:37.615Z,56.30
2017-12-14T16:43:05.135Z,56.40
2017-12-14T16:45:33.435Z,56.70
2017-12-14T16:48:00.948Z,56.60
2017-12-14T16:50:29.273Z,57.30
2017-12-14T16:52:56.783Z,56.90
2017-12-14T16:55:24.322Z,57.00
2017-12-14T16:57:51.847Z,57.30
2017-12-14T17:00:19.340Z,57.20
2017-12-14T17:02:46.874Z,57.30
2017-12-14T17:05:15.515Z,57.80
2017-12-14T17:07:43.821Z,58.60
2017-12-14T17:10:11.317Z,58.50
2017-12-14T17:12:38.823Z,58.70
2017-12-14T17:15:06.345Z,58.30
2017-12-14T17:17:33.868Z,58.30
2017-12-14T17:20:01.396Z,58.40
2017-12-14T17:22:28.898Z,58.50
2017-12-14T17:24:56.423Z,58.60
2017-12-14T17:27:23.947Z,58.90
2017-12-14T17:29:52.260Z,58.90
2017-12-14T17:32:19.792Z,58.90
2017-12-14T17:34:47.377Z,58.90
2017-12-14T17:37:14.912Z,59.10
2017-12-14T17:39:42.436Z,59.20
2017-12-14T17:42:09.973Z,59.20
2017-12-14T17:44:37.490Z,59.30
2017-12-14T17:47:05.038Z,59.40
2017-12-14T17:49:32.577Z,59.50
2017-12-14T17:52:00.905Z,59.90
2017-12-14T17:54:28.410Z,59.90
2017-12-14T17:56:55.921Z,59.70
2017-12-14T17:59:23.459Z,60.50
2017-12-14T18:01:50.982Z,59.80
2017-12-14T18:04:18.508Z,59.80
2017-12-14T18:06:46.015Z,60.10
2017-12-14T18:09:14.318Z,60.60
2017-12-14T18:11:41.875Z,60.50
2017-12-14T18:14:09.426Z,60.70
2017-12-14T18:16:36.943Z,60.40
2017-12-14T18:19:04.491Z,60.60
2017-12-14T18:21:32.004Z,60.70
2017-12-14T18:23:59.558Z,60.70
2017-12-14T18:26:27.110Z,61.10
2017-12-14T18:28:54.618Z,61.20
2017-12-14T18:31:22.150Z,61.10
2017-12-14T18:33:49.698Z,61.20
2017-12-14T18:36:17.242Z,61.20
2017-12-14T18:38:44.758Z,61.10
2017-12-14T18:41:12.314Z,61.30
2017-12-14T18:43:39.852Z,61.40
2017-12-14T18:46:07.495Z,61.90
2017-12-14T18:48:35.027Z,61.90
2017-12-14T18:51:02.560Z,62.00
2017-12-14T18:53:30.889Z,62.10
2017-12-14T18:55:58.462Z,62.10
2017-12-14T18:58:28.005Z,62.30
2017-12-14T19:00:55.544Z,62.70
2017-12-14T19:03:23.082Z,63.10
2017-12-14T19:05:50.609Z,63.50
2017-12-14T19:08:18.144Z,63.80
2017-12-14T19:10:46.436Z,64.80
2017-12-14T19:13:13.990Z,64.80
2017-12-14T19:15:41.533Z,65.70
2017-12-14T19:18:09.876Z,66.60
2017-12-14T19:20:37.426Z,66.50
2017-12-14T19:23:04.951Z,67.10
2017-12-14T19:25:32.496Z,66.90
2017-12-14T19:28:00.779Z,67.60
2017-12-14T19:30:28.299Z,67.60
2017-12-14T19:32:55.875Z,67.90
2017-12-14T19:35:23.661Z,67.80
2017-12-14T19:37:51.294Z,68.30
2017-12-14T19:40:19.316Z,68.80
2017-12-14T19:42:46.853Z,68.80
2017-12-14T19:45:14.391Z,68.60
2017-12-14T19:47:42.749Z,68.30
2017-12-14T19:50:10.240Z,68.30
2017-12-14T19:52:37.800Z,68.20
2017-12-14T19:55:05.337Z,68.40
2017-12-14T19:57:33.648Z,68.30
2017-12-14T20:00:01.329Z,68.30
2017-12-14T20:02:28.872Z,68.50
2017-12-14T20:04:56.447Z,68.50
2017-12-14T20:07:24.092Z,68.60
2017-12-14T20:09:51.615Z,68.80
2017-12-14T20:12:19.161Z,68.90
2017-12-14T20:14:46.884Z,69.20
2017-12-14T20:17:14.441Z,70.10
2017-12-14T20:19:42.038Z,69.60
2017-12-14T20:22:09.558Z,69.80
2017-12-14T20:24:37.067Z,70.20
2017-12-14T20:27:04.663Z,70.30
2017-12-14T20:29:32.219Z,70.30
2017-12-14T20:31:59.751Z,70.60
2017-12-14T20:34:28.025Z,71.00
2017-12-14T20:36:56.326Z,71.10
2017-12-14T20:39:23.854Z,71.00
2017-12-14T20:41:52.274Z,71.00
2017-12-14T20:44:19.834Z,70.90
2017-12-14T20:46:47.358Z,70.90
2017-12-14T20:49:14.870Z,70.90
2017-12-14T20:51:42.407Z,70.90
2017-12-14T20:54:09.957Z,70.80
2017-12-14T20:56:37.512Z,70.90
2017-12-14T20:59:05.015Z,70.90
2017-12-14T21:01:32.581Z,70.80
2017-12-14T21:04:00.103Z,71.00
2017-12-14T21:06:27.647Z,71.40
2017-12-14T21:08:55.202Z,71.30
2017-12-14T21:11:22.712Z,71.70
2017-12-14T21:13:50.227Z,72.70
2017-12-14T21:16:17.765Z,72.40
2017-12-14T21:18:45.264Z,72.50
2017-12-14T21:21:12.826Z,73.00
2017-12-14T21:23:40.325Z,73.30
2017-12-14T21:26:07.848Z,73.10
2017-12-14T21:28:35.357Z,73.30
2017-12-14T21:31:02.913Z,73.30
2017-12-14T21:33:30.416Z,73.40
2017-12-14T21:35:57.945Z,73.30
2017-12-14T21:38:25.463Z,73.50
2017-12-14T21:40:53.724Z,73.60
2017-12-14T21:43:22.009Z,74.10
2017-12-14T21:45:50.268Z,73.30
2017-12-14T21:48:17.800Z,73.30
2017-12-14T21:50:45.323Z,74.00
2017-12-14T21:53:12.857Z,73.40
2017-12-14T21:55:41.148Z,73.70
2017-12-14T21:58:09.410Z,74.00
2017-12-14T22:00:37.716Z,74.10
2017-12-14T22:03:05.224Z,74.00
2017-12-14T22:05:32.727Z,74.50
2017-12-14T22:08:00.269Z,74.30
2017-12-14T22:10:27.797Z,74.30
2017-12-14T22:12:55.324Z,74.10
2017-12-14T22:15:22.846Z,74.40
2017-12-14T22:17:50.408Z,74.40
2017-12-14T22:20:17.902Z,74.10
2017-12-14T22:22:45.392Z,73.60
2017-12-14T22:25:13.713Z,74.40
2017-12-14T22:27:41.230Z,73.60
2017-12-14T22:30:08.742Z,73.30
2017-12-14T22:32:36.273Z,73.00
2017-12-14T22:35:03.818Z,72.90
2017-12-14T22:37:31.314Z,73.10
2017-12-14T22:39:58.813Z,73.10
2017-12-14T22:42:26.336Z,72.90
2017-12-14T22:44:53.835Z,72.80
2017-12-14T22:47:22.096Z,72.60
2017-12-14T22:49:49.620Z,72.60
2017-12-14T22:52:17.112Z,72.20
2017-12-14T22:54:44.620Z,72.10
2017-12-14T22:57:12.121Z,72.50
2017-12-14T22:59:39.654Z,72.30
2017-12-14T23:02:07.193Z,72.20
2017-12-14T23:04:34.695Z,72.20
2017-12-14T23:07:02.214Z,72.40
2017-12-14T23:09:29.743Z,72.40
2017-12-14T23:11:57.244Z,72.40
2017-12-14T23:14:24.856Z,72.40
2017-12-14T23:16:53.165Z,72.30
2017-12-14T23:19:20.696Z,72.30
2017-12-14T23:21:48.214Z,72.30
2017-12-14T23:24:15.701Z,72.40
2017-12-14T23:26:43.980Z,72.50
2017-12-14T23:29:11.503Z,72.50
2017-12-14T23:31:39.011Z,72.30
2017-12-14T23:34:06.541Z,72.60
2017-12-14T23:36:34.799Z,73.30
2017-12-14T23:39:02.324Z,73.10
2017-12-14T23:41:29.814Z,73.20
2017-12-14T23:43:57.342Z,73.30
2017-12-14T23:46:24.844Z,73.50
2017-12-14T23:48:53.186Z,73.70
2017-12-14T23:51:20.728Z,73.70
2017-12-14T23:53:48.219Z,73.80
2017-12-14T23:56:15.735Z,73.80
2017-12-14T23:58:43.228Z,74.10
